Time;durP1;ratioP1;P1;durP2;ratioP2;P2;SDS_P1;SDS_P2;PMS_P1;PMS_P2;Temp;Humidity;BMP_temperature;BMP_pressure;BME280_temperature;BME280_humidity;BME280_pressure;Samples;Min_cycle;Max_cycle;Signal;HPM_P1;HPM_P2
2021/09/06 00:01:37;;;;;;;16.23;12.00;;;;;;;11.60;79.13;102484.72;5006451;28;20231;-81
2021/09/06 00:04:02;;;;;;;16.80;11.00;;;;;;;11.60;78.95;102477.03;5005540;28;20192;-80
2021/09/06 00:06:28;;;;;;;16.03;11.67;;;;;;;11.56;79.15;102480.28;5003471;28;20300;-81
2021/09/06 00:08:53;;;;;;;17.27;11.63;;;;;;;11.49;80.28;102471.44;5006629;28;20196;-80
2021/09/06 00:11:19;;;;;;;17.47;12.10;;;;;;;11.50;79.06;102470.63;5005150;28;20200;-82
2021/09/06 00:13:44;;;;;;;15.23;11.33;;;;;;;11.53;78.61;102470.75;5004378;28;20184;-84
2021/09/06 00:16:10;;;;;;;14.07;11.20;;;;;;;11.45;78.76;102473.81;5003736;28;20183;-83
2021/09/06 00:18:36;;;;;;;23.20;12.10;;;;;;;11.47;78.57;102464.50;5005777;28;20180;-81
2021/09/06 00:21:03;;;;;;;16.63;10.70;;;;;;;11.44;78.68;102457.56;5003830;28;20218;-80
2021/09/06 00:23:29;;;;;;;16.53;10.10;;;;;;;11.42;78.36;102461.72;4985487;28;20204;-79
2021/09/06 00:25:55;;;;;;;14.97;10.97;;;;;;;11.38;78.70;102453.88;4985358;28;20203;-82
2021/09/06 00:28:20;;;;;;;18.27;11.73;;;;;;;11.40;77.80;102450.56;4983471;28;20192;-80
2021/09/06 00:30:45;;;;;;;17.40;11.90;;;;;;;11.38;77.97;102453.88;4968886;28;20215;-80
2021/09/06 00:33:11;;;;;;;15.57;11.07;;;;;;;11.25;78.59;102455.00;4968417;28;20199;-81
2021/09/06 00:35:36;;;;;;;13.53;10.90;;;;;;;11.12;79.21;102455.31;4968842;28;20188;-82
2021/09/06 00:38:02;;;;;;;16.27;11.57;;;;;;;11.09;79.27;102462.88;4983219;28;20733;-81
2021/09/06 00:40:28;;;;;;;14.20;10.70;;;;;;;11.03;79.31;102462.63;4982834;28;20328;-81
2021/09/06 00:42:53;;;;;;;15.33;10.57;;;;;;;10.96;79.28;102464.84;4981121;28;20185;-81
2021/09/06 00:45:19;;;;;;;15.10;10.63;;;;;;;11.00;78.43;102461.59;4981656;28;20200;-82
2021/09/06 00:47:44;;;;;;;14.93;10.43;;;;;;;11.07;78.12;102461.06;4980991;28;20211;-81
2021/09/06 00:50:14;;;;;;;13.27;10.33;;;;;;;11.08;78.06;102455.09;4967466;28;20216;-81
2021/09/06 00:52:43;;;;;;;16.67;12.40;;;;;;;11.09;79.11;102452.63;4982454;28;20188;-82
2021/09/06 00:55:10;;;;;;;15.70;10.50;;;;;;;11.10;79.14;102464.63;4966361;28;20677;-84
2021/09/06 00:57:37;;;;;;;15.47;11.30;;;;;;;10.99;79.33;102467.53;4986858;28;20184;-83
2021/09/06 01:00:05;;;;;;;16.83;10.97;;;;;;;11.06;78.65;102459.31;4999048;28;20219;-84
2021/09/06 01:02:32;;;;;;;14.77;11.17;;;;;;;11.00;79.24;102461.59;5004148;28;20184;-81
2021/09/06 01:04:57;;;;;;;13.93;10.33;;;;;;;10.99;80.22;102458.16;5000748;28;20203;-83
2021/09/06 01:07:41;;;;;;;12.27;9.80;;;;;;;10.98;79.97;102458.97;5002177;28;20262;-81
2021/09/06 01:10:26;;;;;;;12.80;10.00;;;;;;;10.97;81.35;102458.91;5000031;28;20208;-82
2021/09/06 01:13:05;;;;;;;11.87;8.87;;;;;;;10.98;79.80;102466.66;4999952;28;20183;-81
2021/09/06 01:15:32;;;;;;;11.47;8.93;;;;;;;10.84;79.90;102467.75;4983636;28;20188;-80
2021/09/06 01:17:59;;;;;;;11.57;9.07;;;;;;;10.86;80.54;102462.66;4999431;28;20584;-80
2021/09/06 01:20:26;;;;;;;11.27;9.60;;;;;;;10.86;80.81;102468.69;4982762;28;20220;-83
2021/09/06 01:22:56;;;;;;;15.10;11.10;;;;;;;10.87;80.71;102464.44;4979529;28;20184;-82
2021/09/06 01:25:36;;;;;;;14.80;10.43;;;;;;;10.86;79.81;102466.13;4979182;28;20275;-81
2021/09/06 01:28:02;;;;;;;15.73;10.60;;;;;;;10.85;80.10;102459.25;4979220;28;20272;-81
2021/09/06 01:30:28;;;;;;;14.13;10.57;;;;;;;10.71;80.12;102462.00;4982331;28;20244;-81
2021/09/06 01:32:54;;;;;;;15.87;11.17;;;;;;;10.73;79.79;102463.81;4984493;28;20662;-84
2021/09/06 01:35:19;;;;;;;12.77;9.30;;;;;;;10.71;79.96;102460.31;4967734;28;20173;-86
2021/09/06 01:37:51;;;;;;;13.43;9.90;;;;;;;10.68;81.57;102464.41;4983734;28;20176;-83
2021/09/06 01:40:18;;;;;;;12.07;10.00;;;;;;;10.63;81.84;102456.53;4987834;28;20203;-84
2021/09/06 01:42:44;;;;;;;11.80;8.93;;;;;;;10.70;80.82;102465.38;5001931;28;20179;-85
2021/09/06 01:45:10;;;;;;;10.37;8.13;;;;;;;10.70;80.67;102468.78;5002885;28;20199;-82
2021/09/06 01:47:36;;;;;;;10.50;8.60;;;;;;;10.52;80.12;102468.00;5002385;28;20219;-82
2021/09/06 01:50:03;;;;;;;9.23;8.07;;;;;;;10.57;79.44;102455.38;4985948;28;20238;-83
2021/09/06 01:52:37;;;;;;;10.50;8.33;;;;;;;10.59;79.46;102459.75;4968142;28;20209;-81
2021/09/06 01:55:05;;;;;;;10.33;8.60;;;;;;;10.62;79.41;102459.91;4982186;28;20180;-82
2021/09/06 01:57:34;;;;;;;10.80;9.07;;;;;;;10.61;80.11;102450.47;4966090;28;20265;-82
2021/09/06 01:59:59;;;;;;;10.20;9.10;;;;;;;10.48;80.77;102455.84;4983986;28;20224;-82
2021/09/06 02:02:26;;;;;;;18.07;10.27;;;;;;;10.40;81.50;102457.19;4988981;28;20251;-83
2021/09/06 02:04:52;;;;;;;11.97;9.13;;;;;;;10.49;81.06;102451.59;4996757;28;20251;-82
2021/09/06 02:07:18;;;;;;;10.67;9.57;;;;;;;10.48;80.12;102460.97;4982670;28;20259;-81
2021/09/06 02:09:45;;;;;;;12.90;9.53;;;;;;;10.47;81.58;102458.34;4983664;28;20594;-83
2021/09/06 02:12:12;;;;;;;13.87;10.07;;;;;;;10.35;81.20;102462.88;4982801;28;20204;-84
2021/09/06 02:14:42;;;;;;;14.00;9.60;;;;;;;10.33;80.96;102450.00;4982792;28;20187;-83
2021/09/06 02:17:08;;;;;;;13.77;10.00;;;;;;;10.43;81.09;102461.56;4983064;28;20272;-84
2021/09/06 02:19:38;;;;;;;12.63;9.57;;;;;;;10.46;80.48;102462.56;4987070;28;20188;-84
2021/09/06 02:22:04;;;;;;;16.43;9.60;;;;;;;10.45;81.24;102460.81;5003533;28;20703;-80
2021/09/06 02:24:37;;;;;;;11.47;9.70;;;;;;;10.36;81.79;102459.50;5002058;28;20665;-83
2021/09/06 02:27:14;;;;;;;13.57;10.30;;;;;;;10.38;81.78;102458.81;5001929;28;20215;-83
2021/09/06 02:29:41;;;;;;;12.40;9.70;;;;;;;10.32;81.32;102461.06;5002494;28;20187;-82
2021/09/06 02:32:16;;;;;;;15.10;10.40;;;;;;;10.38;81.50;102456.25;4987039;28;20207;-81
2021/09/06 02:34:58;;;;;;;12.37;9.97;;;;;;;10.46;82.19;102460.00;4985706;28;20539;-80
2021/09/06 02:37:24;;;;;;;20.67;10.30;;;;;;;10.45;81.80;102460.81;4981402;28;20195;-79
2021/09/06 02:39:50;;;;;;;21.53;10.50;;;;;;;10.33;82.41;102465.38;4980512;28;20673;-80
2021/09/06 02:42:16;;;;;;;15.90;10.40;;;;;;;10.38;82.39;102463.03;4964472;28;20189;-81
2021/09/06 02:44:41;;;;;;;15.43;10.37;;;;;;;10.38;83.24;102460.47;4962124;28;20204;-80
2021/09/06 02:47:07;;;;;;;25.13;12.47;;;;;;;10.49;83.45;102459.28;4975531;28;20230;-80
2021/09/06 02:49:32;;;;;;;23.30;11.67;;;;;;;10.48;84.08;102460.09;4980804;28;20267;-78
2021/09/06 02:52:00;;;;;;;34.47;12.90;;;;;;;10.51;84.13;102455.97;4985150;28;20219;-78
2021/09/06 02:54:28;;;;;;;51.63;13.80;;;;;;;10.38;86.34;102463.94;4995731;28;20188;-81
2021/09/06 02:56:53;;;;;;;21.93;13.40;;;;;;;10.35;86.51;102462.88;4994604;28;20796;-79
2021/09/06 02:59:18;;;;;;;22.83;12.53;;;;;;;10.38;85.93;102458.81;4993340;28;20619;-80
2021/09/06 03:01:44;;;;;;;26.17;13.10;;;;;;;10.39;85.47;102477.59;4960102;28;20208;-81
2021/09/06 03:04:09;;;;;;;19.97;13.60;;;;;;;10.42;85.46;102476.03;4976881;28;20260;-80
2021/09/06 03:06:35;;;;;;;30.43;15.10;;;;;;;10.45;86.86;102478.75;4975825;28;20299;-81
2021/09/06 03:09:03;;;;;;;34.03;16.60;;;;;;;10.45;88.01;102468.50;4959977;28;20187;-80
2021/09/06 03:11:29;;;;;;;35.33;17.30;;;;;;;10.34;88.30;102473.94;4978625;28;20215;-79
2021/09/06 03:13:55;;;;;;;43.83;16.10;;;;;;;10.34;89.07;102481.63;4978990;28;20677;-80
2021/09/06 03:16:22;;;;;;;46.97;16.80;;;;;;;10.27;89.25;102477.91;4962392;28;20227;-81
2021/09/06 03:18:48;;;;;;;30.17;16.47;;;;;;;10.33;89.39;102473.06;4979415;28;20172;-81
2021/09/06 03:21:22;;;;;;;24.83;15.57;;;;;;;10.33;88.82;102477.31;4978353;28;20207;-81
2021/09/06 03:23:48;;;;;;;25.17;15.83;;;;;;;10.34;89.19;102477.41;4978748;28;20533;-80
2021/09/06 03:26:14;;;;;;;65.23;16.57;;;;;;;10.30;88.84;102470.38;4977738;28;20231;-82
2021/09/06 03:28:41;;;;;;;46.60;17.07;;;;;;;10.33;89.27;102470.50;4978760;28;20673;-78
2021/09/06 03:31:07;;;;;;;42.83;17.00;;;;;;;10.32;89.68;102471.31;4979417;28;20533;-80
2021/09/06 03:33:36;;;;;;;52.37;18.37;;;;;;;10.29;89.61;102471.19;4987973;28;20190;-81
2021/09/06 03:36:01;;;;;;;32.13;20.40;;;;;;;10.26;90.18;102468.47;4980611;28;20965;-81
2021/09/06 03:38:27;;;;;;;47.50;18.80;;;;;;;10.21;89.57;102467.38;4977118;28;20204;-81
2021/09/06 03:40:52;;;;;;;48.03;20.60;;;;;;;10.29;90.44;102470.28;4978153;28;20224;-80
2021/09/06 03:43:18;;;;;;;48.27;22.47;;;;;;;10.28;89.93;102465.97;4963002;28;20708;-81
2021/09/06 03:45:43;;;;;;;54.07;22.53;;;;;;;10.19;90.21;102465.56;4965133;28;20197;-80
2021/09/06 03:48:09;;;;;;;56.43;26.03;;;;;;;10.17;90.52;102462.03;4979619;28;20187;-82
2021/09/06 03:50:35;;;;;;;71.43;25.20;;;;;;;10.09;90.46;102463.38;5000675;28;20492;-82
2021/09/06 03:53:01;;;;;;;58.53;27.70;;;;;;;10.04;90.60;102459.69;4998825;28;20180;-80
2021/09/06 03:55:27;;;;;;;55.57;28.60;;;;;;;10.07;90.90;102464.97;4990188;28;20184;-81
2021/09/06 03:57:53;;;;;;;53.93;27.13;;;;;;;10.07;90.88;102460.75;4977592;28;20183;-82
2021/09/06 04:00:19;;;;;;;54.50;23.97;;;;;;;10.08;90.74;102459.03;4977627;28;20192;-79
2021/09/06 04:02:45;;;;;;;35.23;21.57;;;;;;;10.13;91.48;102461.00;4981997;28;20260;-80
2021/09/06 04:05:14;;;;;;;33.83;18.60;;;;;;;10.10;90.94;102454.88;4986398;28;20177;-81
2021/09/06 04:07:40;;;;;;;28.43;17.40;;;;;;;10.13;91.22;102462.72;4980488;28;20216;-82
2021/09/06 04:10:06;;;;;;;24.93;17.73;;;;;;;10.08;91.47;102465.03;4981825;28;20208;-81
2021/09/06 04:12:32;;;;;;;40.43;18.63;;;;;;;10.02;90.79;102466.41;4985083;28;20247;-80
2021/09/06 04:15:04;;;;;;;67.13;18.97;;;;;;;9.99;90.68;102461.13;4986757;28;20175;-83
2021/09/06 04:17:31;;;;;;;25.13;17.23;;;;;;;10.10;90.93;102471.09;4996980;28;20216;-81
2021/09/06 04:19:57;;;;;;;36.87;18.23;;;;;;;10.10;91.24;102470.25;4981371;28;20220;-82
2021/09/06 04:22:22;;;;;;;49.87;18.67;;;;;;;10.09;91.28;102466.78;4980153;28;20255;-81
2021/09/06 04:24:49;;;;;;;23.43;15.20;;;;;;;10.08;91.05;102467.59;4980944;28;20189;-82
2021/09/06 04:27:16;;;;;;;89.37;18.87;;;;;;;10.08;90.10;102469.28;4979799;28;20259;-79
2021/09/06 04:29:41;;;;;;;168.63;25.07;;;;;;;10.04;90.57;102472.50;4978811;28;20202;-80
2021/09/06 04:32:07;;;;;;;71.37;24.73;;;;;;;10.12;91.06;102464.38;4981524;28;20180;-80
2021/09/06 04:34:33;;;;;;;45.20;20.27;;;;;;;9.99;90.97;102464.56;4999864;28;20223;-80
2021/09/06 04:36:58;;;;;;;55.63;19.00;;;;;;;10.06;91.06;102476.91;5001053;28;20195;-81
2021/09/06 04:39:24;;;;;;;77.73;19.63;;;;;;;9.98;90.57;102474.72;5002748;28;20168;-81
2021/09/06 04:41:49;;;;;;;54.60;21.47;;;;;;;10.05;90.70;102472.56;5001441;28;20192;-79
2021/09/06 04:44:17;;;;;;;49.07;21.07;;;;;;;10.00;91.08;102478.25;4984788;28;20183;-82
2021/09/06 04:46:44;;;;;;;50.83;20.40;;;;;;;9.96;91.42;102474.66;4981564;28;20211;-80
2021/09/06 04:49:12;;;;;;;38.93;21.17;;;;;;;9.95;91.00;102474.59;4981043;28;20252;-80
2021/09/06 04:51:38;;;;;;;40.17;23.03;;;;;;;9.98;91.34;102473.06;4997012;28;20560;-80
2021/09/06 04:54:05;;;;;;;44.23;21.93;;;;;;;9.95;90.98;102470.34;4979029;28;20657;-80
2021/09/06 04:56:31;;;;;;;33.43;18.30;;;;;;;9.97;91.58;102478.09;4960919;28;20235;-81
2021/09/06 04:59:03;;;;;;;23.20;16.10;;;;;;;9.94;91.44;102475.38;4976463;28;20201;-81
2021/09/06 05:01:32;;;;;;;25.10;14.77;;;;;;;9.97;90.78;102475.53;4960657;28;20200;-81
2021/09/06 05:04:01;;;;;;;29.67;14.27;;;;;;;9.94;91.04;102477.94;4976762;28;20296;-80
2021/09/06 05:06:26;;;;;;;25.37;14.83;;;;;;;9.96;90.03;102477.22;4977217;28;20620;-82
2021/09/06 05:08:52;;;;;;;30.33;13.33;;;;;;;9.96;89.38;102484.03;4995074;28;20184;-80
2021/09/06 05:11:17;;;;;;;43.23;16.23;;;;;;;10.02;89.13;102486.88;4995920;28;20196;-82
2021/09/06 05:13:43;;;;;;;38.07;16.00;;;;;;;10.00;89.64;102484.22;4954516;28;20227;-79
2021/09/06 05:16:09;;;;;;;65.37;17.60;;;;;;;9.90;89.17;102486.31;4994776;28;20239;-81
2021/09/06 05:18:35;;;;;;;39.40;17.13;;;;;;;9.90;90.10;102491.41;4979761;28;20187;-80
2021/09/06 05:21:01;;;;;;;41.17;16.90;;;;;;;9.91;90.16;102496.59;4995855;28;20210;-82
2021/09/06 05:23:26;;;;;;;25.20;15.40;;;;;;;9.88;89.52;102499.00;4996957;28;20191;-81
2021/09/06 05:25:53;;;;;;;24.40;15.67;;;;;;;9.92;89.36;102497.47;4979214;28;20191;-80
2021/09/06 05:28:21;;;;;;;30.33;14.00;;;;;;;9.92;89.01;102502.59;4995453;28;20655;-82
2021/09/06 05:30:47;;;;;;;18.60;13.77;;;;;;;9.98;88.62;102492.66;4980035;28;20200;-81
2021/09/06 05:33:12;;;;;;;22.60;14.10;;;;;;;10.03;87.84;102494.63;4995246;28;20191;-81
2021/09/06 05:35:38;;;;;;;18.10;12.07;;;;;;;10.11;87.43;102495.03;4995954;28;20191;-81
2021/09/06 05:38:04;;;;;;;18.13;12.47;;;;;;;10.17;86.17;102498.75;4996108;28;20184;-83
2021/09/06 05:40:49;;;;;;;54.70;16.90;;;;;;;10.20;87.15;102500.59;4995289;28;20208;-81
2021/09/06 05:43:14;;;;;;;24.73;14.27;;;;;;;10.24;87.02;102498.25;4997216;28;20213;-81
2021/09/06 05:45:40;;;;;;;20.57;14.00;;;;;;;10.38;86.66;102504.00;4994999;28;20202;-82
2021/09/06 05:48:06;;;;;;;31.50;15.30;;;;;;;10.44;87.21;102506.84;4978775;28;20180;-80
2021/09/06 05:50:34;;;;;;;79.40;18.07;;;;;;;10.45;87.43;102500.91;4980278;28;20672;-80
2021/09/06 05:53:31;;;;;;;119.30;22.40;;;;;;;10.46;87.88;102497.56;4996150;28;20180;-82
2021/09/06 05:55:57;;;;;;;141.47;21.87;;;;;;;10.40;88.36;102500.72;4995532;28;20199;-82
2021/09/06 05:58:22;;;;;;;24.80;15.97;;;;;;;10.55;88.85;102510.78;4987158;28;20188;-80
2021/09/06 06:00:47;;;;;;;31.33;16.53;;;;;;;10.61;88.01;102503.38;4960773;28;20738;-84
2021/09/06 06:03:13;;;;;;;31.67;16.87;;;;;;;10.66;87.96;102513.03;4977041;28;20196;-82
2021/09/06 06:05:41;;;;;;;36.60;17.03;;;;;;;10.78;88.18;102517.84;4995503;28;20202;-79
2021/09/06 06:08:07;;;;;;;42.23;17.97;;;;;;;10.80;88.06;102511.97;4982734;28;20180;-80
2021/09/06 06:10:33;;;;;;;64.70;18.30;;;;;;;10.86;88.38;102514.81;4975177;28;20232;-79
2021/09/06 06:12:58;;;;;;;58.67;19.20;;;;;;;10.95;88.71;102514.34;4975263;28;20192;-81
2021/09/06 06:15:23;;;;;;;60.80;22.60;;;;;;;11.05;89.68;102521.63;4978823;28;20184;-81
2021/09/06 06:17:49;;;;;;;30.67;19.37;;;;;;;11.15;89.37;102519.53;4996979;28;20188;-79
2021/09/06 06:20:14;;;;;;;69.57;19.20;;;;;;;11.19;89.17;102529.13;4978527;28;20684;-81
2021/09/06 06:23:05;;;;;;;30.50;18.47;;;;;;;11.39;89.02;102514.59;4982481;28;20176;-81
2021/09/06 06:25:52;;;;;;;41.10;19.50;;;;;;;11.56;88.79;102523.91;4995873;28;20211;-80
2021/09/06 06:28:20;;;;;;;29.87;17.30;;;;;;;11.69;87.44;102518.47;4995361;28;20184;-82
2021/09/06 06:30:48;;;;;;;25.57;14.67;;;;;;;11.81;86.73;102526.69;4979086;28;20208;-79
2021/09/06 06:33:16;;;;;;;19.03;13.30;;;;;;;11.89;85.83;102525.34;4996924;28;20671;-79
2021/09/06 06:35:43;;;;;;;24.13;14.33;;;;;;;12.03;85.38;102522.47;4979722;28;20187;-80
2021/09/06 06:38:09;;;;;;;18.23;13.40;;;;;;;11.97;84.73;102522.25;4994577;28;20196;-81
2021/09/06 06:40:37;;;;;;;20.40;13.73;;;;;;;12.16;84.49;102524.72;4995362;28;20215;-80
2021/09/06 06:43:05;;;;;;;21.77;13.77;;;;;;;12.34;83.72;102529.72;4977356;28;20188;-79
2021/09/06 06:45:31;;;;;;;21.80;14.50;;;;;;;12.60;82.87;102521.31;4996272;28;20207;-81
2021/09/06 06:47:56;;;;;;;20.93;13.83;;;;;;;12.76;81.67;102518.53;4999232;28;20589;-80
2021/09/06 06:50:24;;;;;;;18.00;14.17;;;;;;;12.91;81.04;102517.38;4999470;28;20227;-78
2021/09/06 06:52:51;;;;;;;21.20;14.67;;;;;;;13.00;80.60;102521.16;4997756;28;20271;-81
2021/09/06 06:55:17;;;;;;;18.60;14.37;;;;;;;13.00;80.39;102521.16;4980392;28;20216;-82
2021/09/06 06:57:43;;;;;;;17.40;14.00;;;;;;;12.93;81.43;102520.91;4979620;28;20189;-81
2021/09/06 07:00:08;;;;;;;23.00;16.20;;;;;;;12.90;82.08;102523.34;4982014;28;20248;-81
2021/09/06 07:02:37;;;;;;;21.07;15.20;;;;;;;12.96;81.11;102522.72;4992919;28;20300;-79
2021/09/06 07:05:04;;;;;;;22.17;15.63;;;;;;;13.01;81.77;102523.78;4983235;28;20176;-79
2021/09/06 07:07:34;;;;;;;23.87;15.93;;;;;;;13.08;81.33;102517.16;4999081;28;20550;-81
2021/09/06 07:09:59;;;;;;;20.33;15.10;;;;;;;13.14;81.52;102518.25;4982529;28;20232;-79
2021/09/06 07:12:25;;;;;;;22.53;16.80;;;;;;;13.21;81.11;102519.34;4994331;28;20622;-79
2021/09/06 07:14:50;;;;;;;23.00;17.00;;;;;;;13.37;80.27;102511.34;4998133;28;20215;-81
2021/09/06 07:17:16;;;;;;;22.47;17.80;;;;;;;13.51;80.83;102516.16;5001117;28;20199;-82
2021/09/06 07:19:42;;;;;;;22.73;16.43;;;;;;;13.60;79.79;102529.34;5000825;28;20195;-81
2021/09/06 07:22:07;;;;;;;22.17;16.93;;;;;;;13.71;80.41;102516.84;5020814;28;20219;-81
2021/09/06 07:24:35;;;;;;;24.77;17.80;;;;;;;13.74;80.11;102519.50;4987417;28;20198;-80
2021/09/06 07:27:01;;;;;;;23.20;17.73;;;;;;;13.82;79.63;102518.06;4987692;28;20243;-82
2021/09/06 07:29:26;;;;;;;24.07;17.10;;;;;;;13.87;79.15;102519.97;5015973;28;20194;-80
2021/09/06 07:31:52;;;;;;;26.20;17.43;;;;;;;14.02;78.93;102517.00;5017579;28;20211;-80
2021/09/06 07:34:17;;;;;;;24.07;18.17;;;;;;;14.27;78.07;102517.00;5018485;28;20195;-80
2021/09/06 07:36:42;;;;;;;22.70;17.53;;;;;;;14.32;77.71;102516.28;5017894;28;20179;-80
2021/09/06 07:39:08;;;;;;;25.73;18.93;;;;;;;14.43;78.76;102519.22;5019151;28;20183;-81
2021/09/06 07:41:34;;;;;;;23.93;17.37;;;;;;;14.53;78.36;102516.06;5002135;28;20203;-80
2021/09/06 07:44:00;;;;;;;28.77;19.80;;;;;;;14.63;78.47;102518.09;5011578;28;20195;-81
2021/09/06 07:46:25;;;;;;;27.03;19.20;;;;;;;14.67;78.49;102525.09;4998166;28;20220;-82
2021/09/06 07:48:54;;;;;;;23.73;18.07;;;;;;;14.71;78.28;102520.09;4998066;28;20188;-81
2021/09/06 07:51:21;;;;;;;26.00;19.13;;;;;;;14.86;78.16;102517.94;4976993;28;20586;-81
2021/09/06 07:53:46;;;;;;;23.13;17.33;;;;;;;14.93;78.48;102527.63;4977794;28;20200;-81
2021/09/06 07:56:14;;;;;;;23.50;17.73;;;;;;;15.13;77.11;102523.91;4975840;28;20721;-80
2021/09/06 07:58:39;;;;;;;25.03;18.03;;;;;;;15.26;77.17;102525.09;4976496;28;20205;-81
2021/09/06 08:01:05;;;;;;;24.53;17.90;;;;;;;15.33;76.67;102522.72;4979964;28;20688;-81
2021/09/06 08:03:30;;;;;;;25.70;18.80;;;;;;;15.46;77.16;102517.09;4981116;28;20196;-81
2021/09/06 08:05:56;;;;;;;24.43;18.70;;;;;;;15.52;76.18;102521.56;4995701;28;20826;-81
2021/09/06 08:08:22;;;;;;;28.07;19.63;;;;;;;15.55;75.79;102529.34;4996973;28;20690;-80
2021/09/06 08:10:49;;;;;;;26.13;20.20;;;;;;;15.67;76.62;102524.53;4984156;28;20279;-80
2021/09/06 08:13:21;;;;;;;24.10;17.93;;;;;;;15.87;75.90;102528.47;4995647;28;20184;-80
2021/09/06 08:15:47;;;;;;;24.83;18.13;;;;;;;15.57;76.58;102527.72;4994396;28;20195;-80
2021/09/06 08:18:12;;;;;;;26.90;19.17;;;;;;;15.91;76.46;102526.03;5002158;28;20186;-81
2021/09/06 08:20:45;;;;;;;24.37;18.33;;;;;;;16.18;74.89;102526.69;4999329;28;20208;-79
2021/09/06 08:23:10;;;;;;;25.63;19.17;;;;;;;16.27;74.44;102529.50;4981188;28;20691;-81
2021/09/06 08:25:36;;;;;;;26.57;18.67;;;;;;;16.51;73.26;102527.50;4993245;28;20196;-81
2021/09/06 08:28:04;;;;;;;26.33;19.27;;;;;;;16.82;72.61;102532.50;4995253;28;20216;-80
2021/09/06 08:30:30;;;;;;;26.90;18.07;;;;;;;17.17;71.69;102530.63;4995183;28;20747;-79
2021/09/06 08:32:55;;;;;;;24.73;18.40;;;;;;;17.10;72.58;102537.41;4995320;28;20192;-80
2021/09/06 08:35:21;;;;;;;28.27;18.63;;;;;;;17.21;71.68;102535.00;4979666;28;20270;-80
2021/09/06 08:37:46;;;;;;;27.20;19.07;;;;;;;17.72;70.31;102533.41;4994452;28;20668;-80
2021/09/06 08:40:13;;;;;;;27.20;19.60;;;;;;;17.45;71.56;102538.09;4992294;28;20208;-80
2021/09/06 08:42:39;;;;;;;23.60;17.93;;;;;;;17.24;72.51;102542.84;4975404;28;20192;-79
2021/09/06 08:45:07;;;;;;;24.10;18.77;;;;;;;17.06;72.96;102545.06;4959968;28;20678;-78
2021/09/06 08:47:33;;;;;;;23.83;18.57;;;;;;;17.02;73.68;102540.66;4991454;28;20212;-80
2021/09/06 08:49:59;;;;;;;31.17;20.20;;;;;;;17.33;73.66;102545.59;4991230;28;20215;-80
2021/09/06 08:52:25;;;;;;;26.30;19.47;;;;;;;18.32;70.17;102531.78;4975846;28;20244;-80
2021/09/06 08:54:51;;;;;;;22.83;18.20;;;;;;;19.06;67.73;102541.50;4975706;28;20204;-81
2021/09/06 08:57:18;;;;;;;24.60;18.67;;;;;;;19.70;65.83;102533.56;4975736;28;20224;-80
2021/09/06 08:59:44;;;;;;;22.67;17.90;;;;;;;19.65;65.99;102533.53;4994787;28;20202;-80
2021/09/06 09:02:25;;;;;;;23.17;18.27;;;;;;;19.31;66.20;102535.78;4981393;28;20548;-79
2021/09/06 09:05:00;;;;;;;24.90;18.30;;;;;;;19.45;66.01;102537.69;4988893;28;20183;-81
2021/09/06 09:08:04;;;;;;;24.33;18.83;;;;;;;19.98;64.71;102528.63;4996040;28;20265;-80
2021/09/06 09:10:48;;;;;;;24.87;18.20;;;;;;;20.46;62.28;102533.34;4979852;28;20614;-80
2021/09/06 09:13:37;;;;;;;23.30;18.30;;;;;;;20.91;62.26;102531.88;4976160;28;20256;-80
2021/09/06 09:16:21;;;;;;;23.50;17.90;;;;;;;21.45;61.10;102531.16;4976785;28;20195;-80
2021/09/06 09:19:06;;;;;;;24.73;18.60;;;;;;;21.49;59.82;102525.97;4989138;28;20624;-82
2021/09/06 09:21:55;;;;;;;24.43;18.10;;;;;;;22.03;59.53;102525.16;5016201;28;20207;-82
2021/09/06 09:24:29;;;;;;;25.30;19.10;;;;;;;22.50;58.45;102518.16;4982873;28;20255;-79
2021/09/06 09:27:15;;;;;;;23.40;18.20;;;;;;;23.98;53.32;102513.03;4978116;28;20703;-81
2021/09/06 09:29:51;;;;;;;23.33;17.60;;;;;;;25.87;46.29;102506.22;4977199;28;20685;-81
2021/09/06 09:32:33;;;;;;;23.98;17.75;;;;;;;26.67;44.72;102505.63;4977627;28;20224;-80
2021/09/06 09:35:07;;;;;;;23.73;17.90;;;;;;;26.29;46.68;102510.75;4962847;28;20184;-81
2021/09/06 09:37:36;;;;;;;19.83;17.17;;;;;;;30.85;37.36;102496.94;4976201;28;20272;-81
2021/09/06 09:40:09;;;;;;;22.23;15.95;;;;;;;32.52;33.53;102487.28;4976591;28;20622;-80
2021/09/06 09:42:50;;;;;;;22.60;16.75;;;;;;;33.28;33.60;102488.97;4977597;28;20165;-79
2021/09/06 09:45:23;;;;;;;20.08;17.00;;;;;;;31.74;35.58;102490.72;4971219;28;20298;-79
2021/09/06 09:48:06;;;;;;;21.98;16.13;;;;;;;29.93;37.63;102484.41;5005902;28;20211;-80
2021/09/06 09:50:34;;;;;;;20.42;16.23;;;;;;;28.25;41.46;102491.38;4999482;28;20204;-80
2021/09/06 09:53:01;;;;;;;20.52;16.70;;;;;;;26.95;44.33;102498.94;4996970;28;20188;-82
2021/09/06 09:55:31;;;;;;;22.95;16.35;;;;;;;26.25;46.04;102493.28;4998183;28;20191;-80
2021/09/06 09:57:58;;;;;;;23.00;16.60;;;;;;;25.27;47.22;102498.47;4998990;28;20184;-81
2021/09/06 10:00:24;;;;;;;22.23;16.70;;;;;;;25.58;45.87;102494.44;4986802;28;20201;-78
2021/09/06 10:02:59;;;;;;;19.42;16.17;;;;;;;25.99;46.50;102482.41;5012496;28;20183;-80
2021/09/06 10:05:30;;;;;;;22.88;16.45;;;;;;;26.24;45.27;102486.31;4989426;28;20319;-80
2021/09/06 10:07:56;;;;;;;23.25;16.55;;;;;;;25.84;46.74;102481.78;4978853;28;20196;-80
2021/09/06 10:10:24;;;;;;;20.92;16.27;;;;;;;25.77;44.62;102480.13;4979137;28;20222;-80
2021/09/06 10:13:04;;;;;;;19.60;15.65;;;;;;;26.36;44.71;102479.97;4976906;28;20274;-81
2021/09/06 10:15:34;;;;;;;24.77;17.92;;;;;;;25.34;45.46;102482.59;4976943;28;20224;-79
2021/09/06 10:18:39;;;;;;;20.73;16.80;;;;;;;26.13;45.63;102464.63;4978231;28;20173;-78
2021/09/06 10:21:13;;;;;;;21.55;16.98;;;;;;;24.47;47.38;102474.97;4959495;28;20223;-79
2021/09/06 10:23:48;;;;;;;22.48;17.67;;;;;;;24.27;48.67;102471.69;5001966;28;20548;-81
2021/09/06 10:26:14;;;;;;;21.23;17.17;;;;;;;24.44;49.31;102469.78;4993580;28;20216;-79
2021/09/06 10:28:40;;;;;;;18.92;16.00;;;;;;;24.01;49.69;102469.34;5001953;28;20184;-79
2021/09/06 10:31:20;;;;;;;21.35;16.67;;;;;;;24.02;49.12;102471.06;5001582;28;20207;-79
2021/09/06 10:33:57;;;;;;;22.40;17.45;;;;;;;24.61;48.07;102471.34;4999458;28;20187;-79
2021/09/06 10:36:22;;;;;;;22.17;16.70;;;;;;;25.23;46.98;102466.09;4999431;28;20636;-80
2021/09/06 10:38:51;;;;;;;19.88;14.82;;;;;;;25.47;44.92;102468.38;4985585;28;20283;-80
2021/09/06 10:41:20;;;;;;;18.52;14.65;;;;;;;25.42;44.43;102464.97;5019652;28;20207;-80
2021/09/06 10:43:50;;;;;;;21.30;16.05;;;;;;;25.39;45.23;102477.25;5001320;28;20685;-78
2021/09/06 10:46:20;;;;;;;24.77;16.00;;;;;;;25.35;45.41;102473.81;5000653;28;20215;-78
2021/09/06 10:48:49;;;;;;;19.95;15.00;;;;;;;25.10;45.29;102471.56;4999852;28;20584;-80
2021/09/06 10:51:33;;;;;;;17.15;14.75;;;;;;;24.77;46.63;102479.88;4998881;28;20216;-77
2021/09/06 10:54:07;;;;;;;24.25;14.93;;;;;;;24.62;47.16;102482.66;4985053;28;20618;-80
2021/09/06 10:56:34;;;;;;;18.17;15.05;;;;;;;24.09;48.45;102477.13;5002017;28;20219;-79
2021/09/06 10:59:01;;;;;;;20.83;15.23;;;;;;;23.97;48.03;102472.88;5000261;28;20192;-80
2021/09/06 11:01:27;;;;;;;20.88;15.85;;;;;;;23.65;48.84;102474.88;4999875;28;20246;-79
2021/09/06 11:03:53;;;;;;;18.50;14.77;;;;;;;23.47;49.47;102468.91;5000788;28;20192;-80
2021/09/06 11:06:21;;;;;;;17.87;14.17;;;;;;;23.44;50.05;102467.19;5000644;28;20207;-80
2021/09/06 11:08:46;;;;;;;16.63;14.27;;;;;;;23.45;49.61;102468.06;5001269;28;20175;-78
2021/09/06 11:11:11;;;;;;;16.60;13.83;;;;;;;23.63;49.64;102466.19;4998872;28;20208;-80
2021/09/06 11:13:48;;;;;;;19.23;14.03;;;;;;;23.70;49.04;102467.84;4998815;28;20717;-79
2021/09/06 11:16:15;;;;;;;18.70;15.00;;;;;;;23.52;49.16;102468.00;5000844;28;20179;-78